sensor_id;sensor_type;location;lat;lon;timestamp;P1;durP1;ratioP1;P2;durP2;ratioP2
37793;SDS011;23632;48.826;15.176;2022-09-09T00:01:53;0.50;;;0.50;;
37793;SDS011;23632;48.826;15.176;2022-09-09T00:18:51;0.60;;;0.60;;
37793;SDS011;23632;48.826;15.176;2022-09-09T00:21:36;0.52;;;0.52;;
37793;SDS011;23632;48.826;15.176;2022-09-09T00:27:04;0.50;;;0.50;;
37793;SDS011;23632;48.826;15.176;2022-09-09T00:29:43;0.50;;;0.50;;
37793;SDS011;23632;48.826;15.176;2022-09-09T00:32:20;0.60;;;0.60;;
37793;SDS011;23632;48.826;15.176;2022-09-09T00:35:12;0.70;;;0.70;;
37793;SDS011;23632;48.826;15.176;2022-09-09T00:37:57;0.50;;;0.50;;
37793;SDS011;23632;48.826;15.176;2022-09-09T00:43:46;0.50;;;0.50;;
37793;SDS011;23632;48.826;15.176;2022-09-09T00:58:27;0.50;;;0.50;;
37793;SDS011;23632;48.826;15.176;2022-09-09T01:00:57;0.70;;;0.70;;
37793;SDS011;23632;48.826;15.176;2022-09-09T01:03:37;0.70;;;0.70;;
37793;SDS011;23632;48.826;15.176;2022-09-09T01:06:33;0.60;;;0.60;;
37793;SDS011;23632;48.826;15.176;2022-09-09T01:14:49;0.63;;;0.63;;
37793;SDS011;23632;48.826;15.176;2022-09-09T01:17:21;0.80;;;0.80;;
37793;SDS011;23632;48.826;15.176;2022-09-09T01:20:14;0.68;;;0.68;;
37793;SDS011;23632;48.826;15.176;2022-09-09T01:29:00;0.63;;;0.63;;
37793;SDS011;23632;48.826;15.176;2022-09-09T01:31:40;0.70;;;0.70;;
37793;SDS011;23632;48.826;15.176;2022-09-09T01:34:31;0.70;;;0.70;;
37793;SDS011;23632;48.826;15.176;2022-09-09T01:37:06;0.70;;;0.70;;
37793;SDS011;23632;48.826;15.176;2022-09-09T01:39:37;0.63;;;0.63;;
37793;SDS011;23632;48.826;15.176;2022-09-09T01:42:10;0.65;;;0.65;;
37793;SDS011;23632;48.826;15.176;2022-09-09T01:44:41;0.60;;;0.60;;
37793;SDS011;23632;48.826;15.176;2022-09-09T01:47:08;0.80;;;0.80;;
37793;SDS011;23632;48.826;15.176;2022-09-09T01:49:58;0.70;;;0.70;;
37793;SDS011;23632;48.826;15.176;2022-09-09T01:52:28;0.60;;;0.60;;
37793;SDS011;23632;48.826;15.176;2022-09-09T01:54:57;0.70;;;0.70;;
37793;SDS011;23632;48.826;15.176;2022-09-09T02:00:28;0.60;;;0.60;;
37793;SDS011;23632;48.826;15.176;2022-09-09T02:03:00;0.60;;;0.60;;
37793;SDS011;23632;48.826;15.176;2022-09-09T02:06:08;0.50;;;0.50;;
37793;SDS011;23632;48.826;15.176;2022-09-09T02:08:58;0.60;;;0.60;;
37793;SDS011;23632;48.826;15.176;2022-09-09T02:11:30;0.60;;;0.60;;
37793;SDS011;23632;48.826;15.176;2022-09-09T02:14:07;0.60;;;0.60;;
37793;SDS011;23632;48.826;15.176;2022-09-09T02:16:43;0.60;;;0.60;;
37793;SDS011;23632;48.826;15.176;2022-09-09T02:19:25;0.60;;;0.60;;
37793;SDS011;23632;48.826;15.176;2022-09-09T02:22:19;0.65;;;0.65;;
37793;SDS011;23632;48.826;15.176;2022-09-09T02:24:50;0.60;;;0.60;;
37793;SDS011;23632;48.826;15.176;2022-09-09T02:27:24;0.60;;;0.60;;
37793;SDS011;23632;48.826;15.176;2022-09-09T02:29:52;0.60;;;0.60;;
37793;SDS011;23632;48.826;15.176;2022-09-09T02:32:34;0.60;;;0.60;;
37793;SDS011;23632;48.826;15.176;2022-09-09T02:35:19;0.70;;;0.70;;
37793;SDS011;23632;48.826;15.176;2022-09-09T02:37:51;0.65;;;0.65;;
37793;SDS011;23632;48.826;15.176;2022-09-09T02:40:23;0.60;;;0.60;;
37793;SDS011;23632;48.826;15.176;2022-09-09T02:42:57;0.60;;;0.60;;
37793;SDS011;23632;48.826;15.176;2022-09-09T02:45:34;0.60;;;0.60;;
37793;SDS011;23632;48.826;15.176;2022-09-09T02:48:18;0.80;;;0.80;;
37793;SDS011;23632;48.826;15.176;2022-09-09T02:53:43;0.60;;;0.60;;
37793;SDS011;23632;48.826;15.176;2022-09-09T02:56:31;0.60;;;0.60;;
37793;SDS011;23632;48.826;15.176;2022-09-09T02:59:05;0.63;;;0.63;;
37793;SDS011;23632;48.826;15.176;2022-09-09T03:01:34;0.70;;;0.70;;
37793;SDS011;23632;48.826;15.176;2022-09-09T03:04:02;0.68;;;0.68;;
37793;SDS011;23632;48.826;15.176;2022-09-09T03:06:31;0.70;;;0.70;;
37793;SDS011;23632;48.826;15.176;2022-09-09T03:09:10;0.60;;;0.60;;
37793;SDS011;23632;48.826;15.176;2022-09-09T03:11:38;0.60;;;0.60;;
37793;SDS011;23632;48.826;15.176;2022-09-09T03:14:06;0.60;;;0.60;;
37793;SDS011;23632;48.826;15.176;2022-09-09T03:16:35;0.60;;;0.60;;
37793;SDS011;23632;48.826;15.176;2022-09-09T03:19:02;0.60;;;0.60;;
37793;SDS011;23632;48.826;15.176;2022-09-09T03:21:30;0.70;;;0.70;;
37793;SDS011;23632;48.826;15.176;2022-09-09T03:23:58;0.70;;;0.70;;
37793;SDS011;23632;48.826;15.176;2022-09-09T03:26:26;0.70;;;0.70;;
37793;SDS011;23632;48.826;15.176;2022-09-09T03:28:54;0.60;;;0.60;;
37793;SDS011;23632;48.826;15.176;2022-09-09T03:31:22;0.70;;;0.70;;
37793;SDS011;23632;48.826;15.176;2022-09-09T03:33:51;0.60;;;0.60;;
37793;SDS011;23632;48.826;15.176;2022-09-09T03:36:20;0.60;;;0.60;;
37793;SDS011;23632;48.826;15.176;2022-09-09T03:38:47;0.60;;;0.60;;
37793;SDS011;23632;48.826;15.176;2022-09-09T03:41:14;0.80;;;0.80;;
37793;SDS011;23632;48.826;15.176;2022-09-09T03:43:42;0.70;;;0.70;;
37793;SDS011;23632;48.826;15.176;2022-09-09T03:46:10;0.60;;;0.60;;
37793;SDS011;23632;48.826;15.176;2022-09-09T03:48:38;0.63;;;0.63;;
37793;SDS011;23632;48.826;15.176;2022-09-09T03:51:05;0.60;;;0.60;;
37793;SDS011;23632;48.826;15.176;2022-09-09T03:53:33;0.60;;;0.60;;
37793;SDS011;23632;48.826;15.176;2022-09-09T03:56:02;0.60;;;0.60;;
37793;SDS011;23632;48.826;15.176;2022-09-09T03:58:30;0.60;;;0.60;;
37793;SDS011;23632;48.826;15.176;2022-09-09T04:01:05;0.60;;;0.60;;
37793;SDS011;23632;48.826;15.176;2022-09-09T04:03:42;0.70;;;0.70;;
37793;SDS011;23632;48.826;15.176;2022-09-09T04:06:11;0.60;;;0.60;;
37793;SDS011;23632;48.826;15.176;2022-09-09T04:08:44;0.63;;;0.63;;
37793;SDS011;23632;48.826;15.176;2022-09-09T04:11:12;0.60;;;0.60;;
37793;SDS011;23632;48.826;15.176;2022-09-09T04:13:40;0.60;;;0.60;;
37793;SDS011;23632;48.826;15.176;2022-09-09T04:16:10;0.65;;;0.65;;
37793;SDS011;23632;48.826;15.176;2022-09-09T04:18:41;0.68;;;0.68;;
37793;SDS011;23632;48.826;15.176;2022-09-09T04:21:10;0.60;;;0.60;;
37793;SDS011;23632;48.826;15.176;2022-09-09T04:23:39;0.70;;;0.70;;
37793;SDS011;23632;48.826;15.176;2022-09-09T04:26:06;0.60;;;0.60;;
37793;SDS011;23632;48.826;15.176;2022-09-09T04:28:34;0.60;;;0.60;;
37793;SDS011;23632;48.826;15.176;2022-09-09T04:31:19;0.57;;;0.57;;
37793;SDS011;23632;48.826;15.176;2022-09-09T04:33:52;0.80;;;0.80;;
37793;SDS011;23632;48.826;15.176;2022-09-09T04:36:20;0.50;;;0.50;;
37793;SDS011;23632;48.826;15.176;2022-09-09T04:38:51;0.60;;;0.60;;
37793;SDS011;23632;48.826;15.176;2022-09-09T04:41:18;0.60;;;0.60;;
37793;SDS011;23632;48.826;15.176;2022-09-09T04:43:49;0.60;;;0.60;;
37793;SDS011;23632;48.826;15.176;2022-09-09T04:46:16;0.60;;;0.60;;
37793;SDS011;23632;48.826;15.176;2022-09-09T04:48:44;0.50;;;0.50;;
37793;SDS011;23632;48.826;15.176;2022-09-09T04:51:13;0.60;;;0.60;;
37793;SDS011;23632;48.826;15.176;2022-09-09T04:53:43;0.60;;;0.60;;
37793;SDS011;23632;48.826;15.176;2022-09-09T04:56:15;0.60;;;0.60;;
37793;SDS011;23632;48.826;15.176;2022-09-09T04:58:50;0.60;;;0.60;;
37793;SDS011;23632;48.826;15.176;2022-09-09T05:01:21;0.60;;;0.60;;
37793;SDS011;23632;48.826;15.176;2022-09-09T05:03:51;0.60;;;0.60;;
37793;SDS011;23632;48.826;15.176;2022-09-09T05:06:21;0.60;;;0.60;;
37793;SDS011;23632;48.826;15.176;2022-09-09T05:08:55;0.70;;;0.70;;
37793;SDS011;23632;48.826;15.176;2022-09-09T05:11:28;0.60;;;0.60;;
37793;SDS011;23632;48.826;15.176;2022-09-09T05:14:07;0.70;;;0.70;;
37793;SDS011;23632;48.826;15.176;2022-09-09T05:16:34;0.57;;;0.57;;
37793;SDS011;23632;48.826;15.176;2022-09-09T05:19:02;0.52;;;0.52;;
37793;SDS011;23632;48.826;15.176;2022-09-09T05:21:50;0.60;;;0.60;;
37793;SDS011;23632;48.826;15.176;2022-09-09T05:24:22;0.80;;;0.80;;
37793;SDS011;23632;48.826;15.176;2022-09-09T05:26:53;0.60;;;0.60;;
37793;SDS011;23632;48.826;15.176;2022-09-09T05:29:24;0.60;;;0.60;;
37793;SDS011;23632;48.826;15.176;2022-09-09T05:31:54;0.50;;;0.50;;
37793;SDS011;23632;48.826;15.176;2022-09-09T05:34:21;0.50;;;0.50;;
37793;SDS011;23632;48.826;15.176;2022-09-09T05:36:50;0.60;;;0.60;;
37793;SDS011;23632;48.826;15.176;2022-09-09T05:39:20;0.60;;;0.60;;
37793;SDS011;23632;48.826;15.176;2022-09-09T05:41:47;0.50;;;0.50;;
37793;SDS011;23632;48.826;15.176;2022-09-09T05:44:14;0.55;;;0.55;;
37793;SDS011;23632;48.826;15.176;2022-09-09T05:46:42;0.60;;;0.60;;
37793;SDS011;23632;48.826;15.176;2022-09-09T05:49:13;0.50;;;0.50;;
37793;SDS011;23632;48.826;15.176;2022-09-09T05:51:42;0.50;;;0.50;;
37793;SDS011;23632;48.826;15.176;2022-09-09T05:54:13;0.50;;;0.50;;
37793;SDS011;23632;48.826;15.176;2022-09-09T05:56:46;0.70;;;0.70;;
37793;SDS011;23632;48.826;15.176;2022-09-09T05:59:17;0.50;;;0.50;;
37793;SDS011;23632;48.826;15.176;2022-09-09T06:01:44;0.60;;;0.60;;
37793;SDS011;23632;48.826;15.176;2022-09-09T06:04:21;0.50;;;0.50;;
37793;SDS011;23632;48.826;15.176;2022-09-09T06:06:48;0.60;;;0.60;;
37793;SDS011;23632;48.826;15.176;2022-09-09T06:09:18;0.50;;;0.50;;
37793;SDS011;23632;48.826;15.176;2022-09-09T06:11:45;0.50;;;0.50;;
37793;SDS011;23632;48.826;15.176;2022-09-09T06:14:13;0.50;;;0.50;;
37793;SDS011;23632;48.826;15.176;2022-09-09T06:16:44;0.50;;;0.50;;
37793;SDS011;23632;48.826;15.176;2022-09-09T06:19:17;0.50;;;0.50;;
37793;SDS011;23632;48.826;15.176;2022-09-09T06:21:44;0.50;;;0.50;;
37793;SDS011;23632;48.826;15.176;2022-09-09T06:24:12;0.52;;;0.52;;
37793;SDS011;23632;48.826;15.176;2022-09-09T06:26:43;0.50;;;0.50;;
37793;SDS011;23632;48.826;15.176;2022-09-09T06:29:17;0.50;;;0.50;;
37793;SDS011;23632;48.826;15.176;2022-09-09T06:31:44;0.50;;;0.50;;
37793;SDS011;23632;48.826;15.176;2022-09-09T06:34:15;0.50;;;0.50;;
37793;SDS011;23632;48.826;15.176;2022-09-09T06:36:46;0.50;;;0.50;;
37793;SDS011;23632;48.826;15.176;2022-09-09T06:39:13;0.60;;;0.60;;
37793;SDS011;23632;48.826;15.176;2022-09-09T06:41:43;0.57;;;0.57;;
37793;SDS011;23632;48.826;15.176;2022-09-09T06:44:34;0.40;;;0.40;;
37793;SDS011;23632;48.826;15.176;2022-09-09T06:47:05;0.55;;;0.55;;
37793;SDS011;23632;48.826;15.176;2022-09-09T06:49:33;0.50;;;0.50;;
37793;SDS011;23632;48.826;15.176;2022-09-09T06:52:04;0.50;;;0.50;;
37793;SDS011;23632;48.826;15.176;2022-09-09T06:54:36;0.45;;;0.45;;
37793;SDS011;23632;48.826;15.176;2022-09-09T06:57:04;0.47;;;0.47;;
37793;SDS011;23632;48.826;15.176;2022-09-09T06:59:54;0.50;;;0.50;;
37793;SDS011;23632;48.826;15.176;2022-09-09T07:02:21;0.40;;;0.40;;
37793;SDS011;23632;48.826;15.176;2022-09-09T07:04:48;0.40;;;0.40;;
37793;SDS011;23632;48.826;15.176;2022-09-09T07:07:17;0.40;;;0.40;;
37793;SDS011;23632;48.826;15.176;2022-09-09T07:09:45;0.40;;;0.40;;
37793;SDS011;23632;48.826;15.176;2022-09-09T07:12:12;0.43;;;0.43;;
37793;SDS011;23632;48.826;15.176;2022-09-09T07:14:47;0.40;;;0.40;;
37793;SDS011;23632;48.826;15.176;2022-09-09T07:17:14;0.30;;;0.30;;
37793;SDS011;23632;48.826;15.176;2022-09-09T07:19:41;0.40;;;0.40;;
37793;SDS011;23632;48.826;15.176;2022-09-09T07:22:09;0.40;;;0.40;;
37793;SDS011;23632;48.826;15.176;2022-09-09T07:24:37;0.50;;;0.50;;
37793;SDS011;23632;48.826;15.176;2022-09-09T07:27:05;0.50;;;0.50;;
37793;SDS011;23632;48.826;15.176;2022-09-09T07:29:35;0.32;;;0.32;;
37793;SDS011;23632;48.826;15.176;2022-09-09T07:32:02;0.40;;;0.40;;
37793;SDS011;23632;48.826;15.176;2022-09-09T07:34:35;0.50;;;0.50;;
37793;SDS011;23632;48.826;15.176;2022-09-09T07:37:03;0.40;;;0.40;;
37793;SDS011;23632;48.826;15.176;2022-09-09T07:39:31;0.32;;;0.32;;
37793;SDS011;23632;48.826;15.176;2022-09-09T07:41:59;0.45;;;0.45;;
37793;SDS011;23632;48.826;15.176;2022-09-09T07:44:27;0.40;;;0.40;;
37793;SDS011;23632;48.826;15.176;2022-09-09T07:47:05;0.30;;;0.30;;
37793;SDS011;23632;48.826;15.176;2022-09-09T07:49:37;0.40;;;0.40;;
37793;SDS011;23632;48.826;15.176;2022-09-09T07:52:08;0.40;;;0.40;;
37793;SDS011;23632;48.826;15.176;2022-09-09T07:54:37;0.40;;;0.40;;
37793;SDS011;23632;48.826;15.176;2022-09-09T07:57:05;0.40;;;0.40;;
37793;SDS011;23632;48.826;15.176;2022-09-09T07:59:35;0.40;;;0.40;;
37793;SDS011;23632;48.826;15.176;2022-09-09T08:02:03;0.30;;;0.30;;
37793;SDS011;23632;48.826;15.176;2022-09-09T08:04:34;0.40;;;0.40;;
37793;SDS011;23632;48.826;15.176;2022-09-09T08:07:02;0.40;;;0.40;;
37793;SDS011;23632;48.826;15.176;2022-09-09T08:09:37;0.30;;;0.30;;
37793;SDS011;23632;48.826;15.176;2022-09-09T08:12:11;0.30;;;0.30;;
37793;SDS011;23632;48.826;15.176;2022-09-09T08:14:39;0.40;;;0.40;;
37793;SDS011;23632;48.826;15.176;2022-09-09T08:17:06;0.40;;;0.40;;
37793;SDS011;23632;48.826;15.176;2022-09-09T08:19:34;0.40;;;0.40;;
37793;SDS011;23632;48.826;15.176;2022-09-09T08:22:06;0.40;;;0.40;;
37793;SDS011;23632;48.826;15.176;2022-09-09T08:24:36;0.30;;;0.30;;
37793;SDS011;23632;48.826;15.176;2022-09-09T08:27:03;0.40;;;0.40;;
37793;SDS011;23632;48.826;15.176;2022-09-09T08:29:31;0.30;;;0.30;;
37793;SDS011;23632;48.826;15.176;2022-09-09T08:32:01;0.60;;;0.60;;
37793;SDS011;23632;48.826;15.176;2022-09-09T08:34:29;0.40;;;0.40;;
37793;SDS011;23632;48.826;15.176;2022-09-09T08:37:01;0.40;;;0.40;;
37793;SDS011;23632;48.826;15.176;2022-09-09T08:39:34;0.30;;;0.30;;
37793;SDS011;23632;48.826;15.176;2022-09-09T08:48:10;0.30;;;0.30;;
37793;SDS011;23632;48.826;15.176;2022-09-09T08:51:08;0.35;;;0.35;;
37793;SDS011;23632;48.826;15.176;2022-09-09T08:53:40;0.50;;;0.50;;
37793;SDS011;23632;48.826;15.176;2022-09-09T08:56:14;0.40;;;0.40;;
37793;SDS011;23632;48.826;15.176;2022-09-09T08:58:53;0.40;;;0.40;;
37793;SDS011;23632;48.826;15.176;2022-09-09T09:01:38;0.30;;;0.30;;
37793;SDS011;23632;48.826;15.176;2022-09-09T09:13:20;0.60;;;0.60;;
37793;SDS011;23632;48.826;15.176;2022-09-09T09:16:00;0.30;;;0.30;;
37793;SDS011;23632;48.826;15.176;2022-09-09T09:18:44;0.40;;;0.40;;
37793;SDS011;23632;48.826;15.176;2022-09-09T09:21:12;0.50;;;0.50;;
37793;SDS011;23632;48.826;15.176;2022-09-09T09:27:06;0.50;;;0.50;;
37793;SDS011;23632;48.826;15.176;2022-09-09T09:29:49;0.30;;;0.30;;
37793;SDS011;23632;48.826;15.176;2022-09-09T09:32:38;0.40;;;0.40;;
37793;SDS011;23632;48.826;15.176;2022-09-09T09:35:21;0.30;;;0.30;;
37793;SDS011;23632;48.826;15.176;2022-09-09T09:37:49;0.40;;;0.40;;
37793;SDS011;23632;48.826;15.176;2022-09-09T09:40:47;0.50;;;0.50;;
37793;SDS011;23632;48.826;15.176;2022-09-09T09:43:19;0.40;;;0.40;;
37793;SDS011;23632;48.826;15.176;2022-09-09T09:45:57;0.30;;;0.30;;
37793;SDS011;23632;48.826;15.176;2022-09-09T09:48:42;0.35;;;0.35;;
37793;SDS011;23632;48.826;15.176;2022-09-09T09:51:12;0.35;;;0.35;;
37793;SDS011;23632;48.826;15.176;2022-09-09T09:53:43;0.50;;;0.50;;
37793;SDS011;23632;48.826;15.176;2022-09-09T09:56:13;0.30;;;0.30;;
37793;SDS011;23632;48.826;15.176;2022-09-09T10:04:00;0.30;;;0.30;;
37793;SDS011;23632;48.826;15.176;2022-09-09T10:06:49;0.30;;;0.30;;
37793;SDS011;23632;48.826;15.176;2022-09-09T10:09:27;0.52;;;0.52;;
37793;SDS011;23632;48.826;15.176;2022-09-09T10:21:06;0.30;;;0.30;;
37793;SDS011;23632;48.826;15.176;2022-09-09T10:30:42;0.30;;;0.30;;
37793;SDS011;23632;48.826;15.176;2022-09-09T10:36:18;0.30;;;0.30;;
37793;SDS011;23632;48.826;15.176;2022-09-09T10:39:03;0.47;;;0.47;;
37793;SDS011;23632;48.826;15.176;2022-09-09T10:41:48;0.30;;;0.30;;
37793;SDS011;23632;48.826;15.176;2022-09-09T10:53:36;0.30;;;0.30;;
37793;SDS011;23632;48.826;15.176;2022-09-09T10:56:13;0.38;;;0.38;;
37793;SDS011;23632;48.826;15.176;2022-09-09T10:58:51;0.40;;;0.40;;
37793;SDS011;23632;48.826;15.176;2022-09-09T11:01:41;0.30;;;0.30;;
37793;SDS011;23632;48.826;15.176;2022-09-09T11:04:20;0.30;;;0.30;;
37793;SDS011;23632;48.826;15.176;2022-09-09T11:06:58;0.30;;;0.30;;
37793;SDS011;23632;48.826;15.176;2022-09-09T11:09:38;0.35;;;0.35;;
37793;SDS011;23632;48.826;15.176;2022-09-09T11:12:15;0.38;;;0.38;;
37793;SDS011;23632;48.826;15.176;2022-09-09T11:14:48;0.30;;;0.30;;
37793;SDS011;23632;48.826;15.176;2022-09-09T11:17:38;0.30;;;0.30;;
37793;SDS011;23632;48.826;15.176;2022-09-09T11:20:11;0.30;;;0.30;;
37793;SDS011;23632;48.826;15.176;2022-09-09T11:22:48;0.40;;;0.40;;
37793;SDS011;23632;48.826;15.176;2022-09-09T11:25:28;0.30;;;0.30;;
37793;SDS011;23632;48.826;15.176;2022-09-09T11:28:11;0.40;;;0.40;;
37793;SDS011;23632;48.826;15.176;2022-09-09T11:40:35;0.40;;;0.40;;
37793;SDS011;23632;48.826;15.176;2022-09-09T11:43:03;0.30;;;0.30;;
37793;SDS011;23632;48.826;15.176;2022-09-09T11:45:39;0.30;;;0.30;;
37793;SDS011;23632;48.826;15.176;2022-09-09T11:53:52;0.40;;;0.40;;
37793;SDS011;23632;48.826;15.176;2022-09-09T11:56:28;0.50;;;0.50;;
37793;SDS011;23632;48.826;15.176;2022-09-09T11:59:20;0.30;;;0.30;;
37793;SDS011;23632;48.826;15.176;2022-09-09T12:02:01;0.30;;;0.30;;
37793;SDS011;23632;48.826;15.176;2022-09-09T12:04:48;0.40;;;0.40;;
37793;SDS011;23632;48.826;15.176;2022-09-09T12:07:32;0.30;;;0.30;;
37793;SDS011;23632;48.826;15.176;2022-09-09T12:12:49;0.40;;;0.40;;
37793;SDS011;23632;48.826;15.176;2022-09-09T12:15:21;0.40;;;0.40;;
37793;SDS011;23632;48.826;15.176;2022-09-09T12:17:55;0.40;;;0.40;;
37793;SDS011;23632;48.826;15.176;2022-09-09T12:20:38;0.50;;;0.50;;
37793;SDS011;23632;48.826;15.176;2022-09-09T12:29:28;0.43;;;0.43;;
37793;SDS011;23632;48.826;15.176;2022-09-09T12:32:23;0.60;;;0.60;;
37793;SDS011;23632;48.826;15.176;2022-09-09T12:34:53;0.40;;;0.40;;
37793;SDS011;23632;48.826;15.176;2022-09-09T12:37:37;0.40;;;0.40;;
37793;SDS011;23632;48.826;15.176;2022-09-09T12:40:19;0.30;;;0.30;;
37793;SDS011;23632;48.826;15.176;2022-09-09T12:42:55;0.60;;;0.60;;
37793;SDS011;23632;48.826;15.176;2022-09-09T12:45:23;0.40;;;0.40;;
37793;SDS011;23632;48.826;15.176;2022-09-09T12:47:55;0.30;;;0.30;;
37793;SDS011;23632;48.826;15.176;2022-09-09T12:50:35;0.50;;;0.50;;
37793;SDS011;23632;48.826;15.176;2022-09-09T12:53:14;0.50;;;0.50;;
37793;SDS011;23632;48.826;15.176;2022-09-09T12:56:07;0.30;;;0.30;;
37793;SDS011;23632;48.826;15.176;2022-09-09T12:58:50;0.30;;;0.30;;
37793;SDS011;23632;48.826;15.176;2022-09-09T13:01:21;0.40;;;0.40;;
37793;SDS011;23632;48.826;15.176;2022-09-09T13:03:57;0.43;;;0.43;;
37793;SDS011;23632;48.826;15.176;2022-09-09T13:06:26;0.40;;;0.40;;
37793;SDS011;23632;48.826;15.176;2022-09-09T13:08:58;0.40;;;0.40;;
37793;SDS011;23632;48.826;15.176;2022-09-09T13:11:36;0.40;;;0.40;;
37793;SDS011;23632;48.826;15.176;2022-09-09T13:14:28;0.50;;;0.50;;
37793;SDS011;23632;48.826;15.176;2022-09-09T13:17:01;0.50;;;0.50;;
37793;SDS011;23632;48.826;15.176;2022-09-09T13:19:37;0.52;;;0.52;;
37793;SDS011;23632;48.826;15.176;2022-09-09T13:25:14;0.40;;;0.40;;
37793;SDS011;23632;48.826;15.176;2022-09-09T13:27:56;0.40;;;0.40;;
37793;SDS011;23632;48.826;15.176;2022-09-09T13:30:33;0.40;;;0.40;;
37793;SDS011;23632;48.826;15.176;2022-09-09T13:33:06;0.40;;;0.40;;
37793;SDS011;23632;48.826;15.176;2022-09-09T13:36:13;0.50;;;0.50;;
37793;SDS011;23632;48.826;15.176;2022-09-09T13:38:38;0.40;;;0.40;;
37793;SDS011;23632;48.826;15.176;2022-09-09T13:41:21;0.50;;;0.50;;
37793;SDS011;23632;48.826;15.176;2022-09-09T13:43:50;0.40;;;0.40;;
37793;SDS011;23632;48.826;15.176;2022-09-09T13:49:19;0.40;;;0.40;;
37793;SDS011;23632;48.826;15.176;2022-09-09T13:51:49;0.40;;;0.40;;
37793;SDS011;23632;48.826;15.176;2022-09-09T13:54:19;0.30;;;0.30;;
37793;SDS011;23632;48.826;15.176;2022-09-09T13:56:48;0.40;;;0.40;;
37793;SDS011;23632;48.826;15.176;2022-09-09T13:59:17;0.30;;;0.30;;
37793;SDS011;23632;48.826;15.176;2022-09-09T14:02:07;0.60;;;0.60;;
37793;SDS011;23632;48.826;15.176;2022-09-09T14:04:34;0.30;;;0.30;;
37793;SDS011;23632;48.826;15.176;2022-09-09T14:07:01;0.40;;;0.40;;
37793;SDS011;23632;48.826;15.176;2022-09-09T14:09:29;0.40;;;0.40;;
37793;SDS011;23632;48.826;15.176;2022-09-09T14:11:56;0.40;;;0.40;;
37793;SDS011;23632;48.826;15.176;2022-09-09T14:14:23;0.40;;;0.40;;
37793;SDS011;23632;48.826;15.176;2022-09-09T14:16:52;0.40;;;0.40;;
37793;SDS011;23632;48.826;15.176;2022-09-09T14:19:19;0.40;;;0.40;;
37793;SDS011;23632;48.826;15.176;2022-09-09T14:21:46;0.38;;;0.38;;
37793;SDS011;23632;48.826;15.176;2022-09-09T14:24:14;0.60;;;0.60;;
37793;SDS011;23632;48.826;15.176;2022-09-09T14:26:42;0.40;;;0.40;;
37793;SDS011;23632;48.826;15.176;2022-09-09T14:29:09;0.40;;;0.40;;
37793;SDS011;23632;48.826;15.176;2022-09-09T14:31:36;0.40;;;0.40;;
37793;SDS011;23632;48.826;15.176;2022-09-09T14:34:03;0.30;;;0.30;;
37793;SDS011;23632;48.826;15.176;2022-09-09T14:36:30;0.60;;;0.60;;
37793;SDS011;23632;48.826;15.176;2022-09-09T14:38:58;0.50;;;0.50;;
37793;SDS011;23632;48.826;15.176;2022-09-09T14:41:26;0.40;;;0.40;;
37793;SDS011;23632;48.826;15.176;2022-09-09T14:43:55;0.47;;;0.47;;
37793;SDS011;23632;48.826;15.176;2022-09-09T14:46:23;0.50;;;0.50;;
37793;SDS011;23632;48.826;15.176;2022-09-09T14:48:50;0.50;;;0.50;;
37793;SDS011;23632;48.826;15.176;2022-09-09T14:51:19;0.40;;;0.40;;
37793;SDS011;23632;48.826;15.176;2022-09-09T14:53:52;0.40;;;0.40;;
37793;SDS011;23632;48.826;15.176;2022-09-09T14:56:26;0.40;;;0.40;;
37793;SDS011;23632;48.826;15.176;2022-09-09T14:58:57;0.50;;;0.50;;
37793;SDS011;23632;48.826;15.176;2022-09-09T15:01:29;0.40;;;0.40;;
37793;SDS011;23632;48.826;15.176;2022-09-09T15:04:01;0.47;;;0.47;;
37793;SDS011;23632;48.826;15.176;2022-09-09T15:06:32;0.50;;;0.50;;
37793;SDS011;23632;48.826;15.176;2022-09-09T15:09:03;0.40;;;0.40;;
37793;SDS011;23632;48.826;15.176;2022-09-09T15:11:31;0.40;;;0.40;;
37793;SDS011;23632;48.826;15.176;2022-09-09T15:14:05;0.40;;;0.40;;
37793;SDS011;23632;48.826;15.176;2022-09-09T15:16:34;0.40;;;0.40;;
37793;SDS011;23632;48.826;15.176;2022-09-09T15:19:02;0.40;;;0.40;;
37793;SDS011;23632;48.826;15.176;2022-09-09T15:21:31;0.50;;;0.50;;
37793;SDS011;23632;48.826;15.176;2022-09-09T15:24:01;0.40;;;0.40;;
37793;SDS011;23632;48.826;15.176;2022-09-09T15:26:29;0.40;;;0.40;;
37793;SDS011;23632;48.826;15.176;2022-09-09T15:28:56;0.40;;;0.40;;
37793;SDS011;23632;48.826;15.176;2022-09-09T15:31:29;0.40;;;0.40;;
37793;SDS011;23632;48.826;15.176;2022-09-09T15:33:59;0.30;;;0.30;;
37793;SDS011;23632;48.826;15.176;2022-09-09T15:39:10;0.40;;;0.40;;
37793;SDS011;23632;48.826;15.176;2022-09-09T15:41:45;0.40;;;0.40;;
37793;SDS011;23632;48.826;15.176;2022-09-09T15:44:13;0.40;;;0.40;;
37793;SDS011;23632;48.826;15.176;2022-09-09T15:46:45;0.40;;;0.40;;
37793;SDS011;23632;48.826;15.176;2022-09-09T15:49:20;0.40;;;0.40;;
37793;SDS011;23632;48.826;15.176;2022-09-09T15:51:55;0.50;;;0.50;;
37793;SDS011;23632;48.826;15.176;2022-09-09T15:54:25;0.40;;;0.40;;
37793;SDS011;23632;48.826;15.176;2022-09-09T15:56:54;0.50;;;0.50;;
37793;SDS011;23632;48.826;15.176;2022-09-09T15:59:24;0.50;;;0.50;;
37793;SDS011;23632;48.826;15.176;2022-09-09T16:01:54;0.43;;;0.43;;
37793;SDS011;23632;48.826;15.176;2022-09-09T16:04:23;0.47;;;0.47;;
37793;SDS011;23632;48.826;15.176;2022-09-09T16:06:55;0.45;;;0.45;;
37793;SDS011;23632;48.826;15.176;2022-09-09T16:09:31;0.40;;;0.40;;
37793;SDS011;23632;48.826;15.176;2022-09-09T16:11:59;0.60;;;0.60;;
37793;SDS011;23632;48.826;15.176;2022-09-09T16:14:29;0.50;;;0.50;;
37793;SDS011;23632;48.826;15.176;2022-09-09T16:17:00;0.50;;;0.50;;
37793;SDS011;23632;48.826;15.176;2022-09-09T16:19:29;0.50;;;0.50;;
37793;SDS011;23632;48.826;15.176;2022-09-09T16:21:55;0.40;;;0.40;;
37793;SDS011;23632;48.826;15.176;2022-09-09T16:24:23;0.47;;;0.47;;
37793;SDS011;23632;48.826;15.176;2022-09-09T16:26:51;0.40;;;0.40;;
37793;SDS011;23632;48.826;15.176;2022-09-09T16:29:21;0.40;;;0.40;;
37793;SDS011;23632;48.826;15.176;2022-09-09T16:31:51;0.40;;;0.40;;
37793;SDS011;23632;48.826;15.176;2022-09-09T16:34:20;0.40;;;0.40;;
37793;SDS011;23632;48.826;15.176;2022-09-09T16:36:47;0.40;;;0.40;;
37793;SDS011;23632;48.826;15.176;2022-09-09T16:39:16;0.43;;;0.43;;
37793;SDS011;23632;48.826;15.176;2022-09-09T16:41:46;0.45;;;0.45;;
37793;SDS011;23632;48.826;15.176;2022-09-09T16:44:15;0.40;;;0.40;;
37793;SDS011;23632;48.826;15.176;2022-09-09T16:46:45;0.40;;;0.40;;
37793;SDS011;23632;48.826;15.176;2022-09-09T16:49:26;0.40;;;0.40;;
37793;SDS011;23632;48.826;15.176;2022-09-09T16:51:56;0.40;;;0.40;;
37793;SDS011;23632;48.826;15.176;2022-09-09T16:54:25;0.40;;;0.40;;
37793;SDS011;23632;48.826;15.176;2022-09-09T16:56:53;0.47;;;0.47;;
37793;SDS011;23632;48.826;15.176;2022-09-09T16:59:21;0.40;;;0.40;;
37793;SDS011;23632;48.826;15.176;2022-09-09T17:01:49;0.50;;;0.50;;
37793;SDS011;23632;48.826;15.176;2022-09-09T17:04:19;0.50;;;0.50;;
37793;SDS011;23632;48.826;15.176;2022-09-09T17:06:53;0.52;;;0.52;;
37793;SDS011;23632;48.826;15.176;2022-09-09T17:09:22;0.70;;;0.70;;
37793;SDS011;23632;48.826;15.176;2022-09-09T17:11:50;0.50;;;0.50;;
37793;SDS011;23632;48.826;15.176;2022-09-09T17:14:19;0.50;;;0.50;;
37793;SDS011;23632;48.826;15.176;2022-09-09T17:16:48;0.40;;;0.40;;
37793;SDS011;23632;48.826;15.176;2022-09-09T17:19:15;0.60;;;0.60;;
37793;SDS011;23632;48.826;15.176;2022-09-09T17:21:44;0.50;;;0.50;;
37793;SDS011;23632;48.826;15.176;2022-09-09T17:24:33;0.50;;;0.50;;